Time;durP1;ratioP1;P1;durP2;ratioP2;P2;SDS_P1;SDS_P2;PMS_P1;PMS_P2;Temp;Humidity;BMP_temperature;BMP_pressure;BME280_temperature;BME280_humidity;BME280_pressure;Samples;Min_cycle;Max_cycle;Signal;HPM_P1;HPM_P2
2022/03/24 00:00:37;;;;;;;10.20;6.50;;;;;;;;;;5059214;28;20082;-73
2022/03/24 00:03:04;;;;;;;12.27;7.55;;;;;;;;;;5072179;28;20044;-73
2022/03/24 00:05:30;;;;;;;13.57;7.20;;;;;;;;;;5071118;28;20039;-73
2022/03/24 00:07:56;;;;;;;13.57;7.00;;;;;;;;;;5071873;28;20037;-73
2022/03/24 00:10:23;;;;;;;12.45;6.63;;;;;;;;;;5056477;28;20711;-73
2022/03/24 00:12:51;;;;;;;13.57;6.50;;;;;;;;;;5056377;28;20410;-73
2022/03/24 00:15:17;;;;;;;15.02;6.15;;;;;;;;;;5059406;28;20486;-74
2022/03/24 00:17:44;;;;;;;16.73;6.80;;;;;;;;;;5071562;28;20363;-73
2022/03/24 00:20:12;;;;;;;11.52;5.95;;;;;;;;;;5071526;28;20355;-73
2022/03/24 00:22:38;;;;;;;12.98;7.50;;;;;;;;;;5071593;28;20120;-73
2022/03/24 00:25:04;;;;;;;10.57;6.30;;;;;;;;;;5052155;28;20025;-73
2022/03/24 00:27:30;;;;;;;14.40;6.00;;;;;;;;;;5068169;28;20064;-73
2022/03/24 00:29:57;;;;;;;13.40;6.45;;;;;;;;;;5070441;28;20091;-73
2022/03/24 00:32:23;;;;;;;12.00;6.95;;;;;;;;;;5070863;28;20059;-73
2022/03/24 00:34:49;;;;;;;15.85;7.40;;;;;;;;;;5065049;28;20086;-73
2022/03/24 00:37:15;;;;;;;11.27;5.40;;;;;;;;;;5050365;28;20041;-73
2022/03/24 00:39:41;;;;;;;11.27;6.00;;;;;;;;;;5050985;28;20029;-73
2022/03/24 00:42:09;;;;;;;13.18;5.53;;;;;;;;;;5058834;28;20051;-73
2022/03/24 00:44:36;;;;;;;11.07;5.38;;;;;;;;;;5051458;28;20036;-73
2022/03/24 00:47:02;;;;;;;9.95;5.85;;;;;;;;;;5059594;28;20162;-73
2022/03/24 00:49:28;;;;;;;10.43;5.20;;;;;;;;;;5070940;28;20046;-73
2022/03/24 00:51:55;;;;;;;11.07;5.85;;;;;;;;;;5070233;28;20037;-73
2022/03/24 00:54:21;;;;;;;9.25;5.30;;;;;;;;;;5070629;28;20028;-73
2022/03/24 00:56:47;;;;;;;10.60;5.63;;;;;;;;;;5070530;28;20037;-73
2022/03/24 00:59:13;;;;;;;9.07;4.78;;;;;;;;;;5061621;28;20033;-73
2022/03/24 01:01:39;;;;;;;9.57;4.93;;;;;;;;;;5061180;28;20118;-73
2022/03/24 01:04:06;;;;;;;11.23;4.63;;;;;;;;;;5050765;28;20036;-73
2022/03/24 01:06:34;;;;;;;14.32;6.93;;;;;;;;;;5065711;28;20028;-73
2022/03/24 01:09:00;;;;;;;12.45;6.07;;;;;;;;;;5062149;28;20037;-73
2022/03/24 01:11:26;;;;;;;16.75;6.43;;;;;;;;;;5056030;28;20041;-73
2022/03/24 01:13:52;;;;;;;10.48;5.35;;;;;;;;;;5054235;28;20703;-73
2022/03/24 01:16:18;;;;;;;13.98;6.13;;;;;;;;;;5054985;28;20032;-73
2022/03/24 01:18:45;;;;;;;11.23;5.63;;;;;;;;;;5069735;28;20032;-73
2022/03/24 01:21:16;;;;;;;11.13;5.80;;;;;;;;;;5056071;28;20373;-73
2022/03/24 01:23:42;;;;;;;10.73;5.50;;;;;;;;;;5059210;28;20741;-74
2022/03/24 01:26:09;;;;;;;12.68;5.65;;;;;;;;;;5053227;28;20063;-74
2022/03/24 01:28:37;;;;;;;10.73;6.07;;;;;;;;;;5065974;28;20056;-74
2022/03/24 01:31:03;;;;;;;10.48;5.63;;;;;;;;;;5052970;28;20033;-74
2022/03/24 01:33:29;;;;;;;9.68;5.72;;;;;;;;;;5050396;28;20040;-74
2022/03/24 01:35:55;;;;;;;14.80;6.25;;;;;;;;;;5069798;28;20157;-74
2022/03/24 01:38:22;;;;;;;11.95;6.03;;;;;;;;;;5070168;28;20796;-73
2022/03/24 01:40:48;;;;;;;8.80;4.85;;;;;;;;;;5068970;28;20070;-74
2022/03/24 01:43:14;;;;;;;14.52;5.47;;;;;;;;;;5052238;28;20049;-73
2022/03/24 01:45:41;;;;;;;9.80;5.15;;;;;;;;;;5070216;28;20456;-73
2022/03/24 01:48:11;;;;;;;8.73;4.38;;;;;;;;;;5054506;28;20140;-74
2022/03/24 01:50:39;;;;;;;11.70;5.38;;;;;;;;;;5064529;28;20100;-73
2022/03/24 01:53:05;;;;;;;11.73;5.38;;;;;;;;;;5070971;28;20107;-73
2022/03/24 01:55:33;;;;;;;10.68;5.72;;;;;;;;;;5066151;28;20577;-74
2022/03/24 01:57:59;;;;;;;11.02;5.53;;;;;;;;;;5062805;28;20151;-73
2022/03/24 02:00:25;;;;;;;10.80;5.47;;;;;;;;;;5057322;28;20113;-74
2022/03/24 02:02:53;;;;;;;12.93;4.50;;;;;;;;;;5070816;28;20101;-74
2022/03/24 02:05:20;;;;;;;13.45;5.25;;;;;;;;;;5069920;28;20066;-73
2022/03/24 02:07:46;;;;;;;12.40;5.97;;;;;;;;;;5064712;28;20025;-73
2022/03/24 02:10:12;;;;;;;13.45;6.50;;;;;;;;;;5065128;28;20069;-74
2022/03/24 02:12:38;;;;;;;38.58;21.90;;;;;;;;;;5070763;28;20076;-73
2022/03/24 02:15:05;;;;;;;20.23;11.82;;;;;;;;;;5070255;28;20486;-73
2022/03/24 02:17:31;;;;;;;17.83;8.52;;;;;;;;;;5062414;28;20031;-73
2022/03/24 02:19:58;;;;;;;12.85;6.90;;;;;;;;;;5070181;28;20112;-74
2022/03/24 02:22:25;;;;;;;10.88;5.53;;;;;;;;;;5070251;28;20493;-73
2022/03/24 02:24:51;;;;;;;10.48;6.03;;;;;;;;;;5070703;28;20032;-73
2022/03/24 02:27:17;;;;;;;13.95;6.82;;;;;;;;;;5070224;28;20370;-74
2022/03/24 02:29:43;;;;;;;10.80;6.15;;;;;;;;;;5070562;28;20036;-74
2022/03/24 02:32:11;;;;;;;12.68;6.53;;;;;;;;;;5065767;28;20074;-74
2022/03/24 02:34:38;;;;;;;14.10;6.60;;;;;;;;;;5069147;28;20090;-73
2022/03/24 02:37:23;;;;;;;8.95;5.18;;;;;;;;;;5070282;28;20498;-73
2022/03/24 02:39:59;;;;;;;11.13;6.10;;;;;;;;;;5070566;28;20028;-74
2022/03/24 02:42:27;;;;;;;8.68;4.90;;;;;;;;;;5066017;28;20041;-73
2022/03/24 02:44:55;;;;;;;15.10;5.72;;;;;;;;;;5070975;28;20037;-74
2022/03/24 02:47:23;;;;;;;8.43;5.22;;;;;;;;;;5070382;28;20017;-73
2022/03/24 02:49:50;;;;;;;11.57;5.65;;;;;;;;;;5050837;28;20070;-73
2022/03/24 02:52:17;;;;;;;9.32;5.15;;;;;;;;;;5057926;28;20016;-74
2022/03/24 02:54:43;;;;;;;9.68;5.10;;;;;;;;;;5074311;28;20040;-73
2022/03/24 02:57:09;;;;;;;8.82;4.68;;;;;;;;;;5073903;28;20093;-73
2022/03/24 02:59:36;;;;;;;10.48;5.07;;;;;;;;;;5074031;28;20032;-73
2022/03/24 03:02:05;;;;;;;11.57;4.68;;;;;;;;;;5073930;28;20772;-74
2022/03/24 03:04:34;;;;;;;11.32;5.53;;;;;;;;;;5074749;28;20029;-74
2022/03/24 03:07:02;;;;;;;11.55;5.40;;;;;;;;;;5074454;28;20062;-74
2022/03/24 03:09:30;;;;;;;10.38;4.75;;;;;;;;;;5074321;28;20066;-73
2022/03/24 03:11:58;;;;;;;9.52;5.35;;;;;;;;;;5074745;28;20029;-73
2022/03/24 03:14:24;;;;;;;11.43;5.25;;;;;;;;;;5074059;28;20519;-73
2022/03/24 03:16:51;;;;;;;13.93;5.47;;;;;;;;;;5073917;28;20036;-74
2022/03/24 03:19:19;;;;;;;11.70;5.93;;;;;;;;;;5073510;28;20036;-73
2022/03/24 03:21:47;;;;;;;12.35;5.93;;;;;;;;;;5058631;28;20017;-73
2022/03/24 03:24:13;;;;;;;13.15;6.57;;;;;;;;;;5074340;28;20040;-73
2022/03/24 03:26:39;;;;;;;11.00;4.70;;;;;;;;;;5066069;28;20031;-73
2022/03/24 03:29:06;;;;;;;12.70;5.35;;;;;;;;;;5074199;28;20085;-73
2022/03/24 03:31:33;;;;;;;11.75;5.47;;;;;;;;;;5073997;28;20335;-73
2022/03/24 03:33:59;;;;;;;9.98;5.18;;;;;;;;;;5070557;28;20039;-73
2022/03/24 03:36:25;;;;;;;12.38;5.38;;;;;;;;;;5053902;28;20021;-73
2022/03/24 03:38:51;;;;;;;12.07;5.68;;;;;;;;;;5079122;28;20045;-73
2022/03/24 03:41:18;;;;;;;12.73;6.07;;;;;;;;;;5074497;28;20032;-73
2022/03/24 03:43:44;;;;;;;11.00;5.68;;;;;;;;;;5066034;28;20053;-73
2022/03/24 03:46:11;;;;;;;11.50;5.38;;;;;;;;;;5053508;28;20032;-73
2022/03/24 03:48:37;;;;;;;10.73;5.80;;;;;;;;;;5058681;28;20033;-73
2022/03/24 03:51:04;;;;;;;10.05;4.85;;;;;;;;;;5074272;28;20021;-73
2022/03/24 03:53:29;;;;;;;8.88;5.20;;;;;;;;;;5073265;28;20041;-74
2022/03/24 03:55:56;;;;;;;10.05;5.18;;;;;;;;;;5073762;28;20024;-73
2022/03/24 03:58:22;;;;;;;10.15;5.32;;;;;;;;;;5073851;28;20116;-73
2022/03/24 04:00:55;;;;;;;11.50;5.45;;;;;;;;;;5072362;28;20115;-73
2022/03/24 04:03:21;;;;;;;8.88;4.90;;;;;;;;;;5063803;28;20027;-73
2022/03/24 04:05:47;;;;;;;11.95;5.20;;;;;;;;;;5071123;28;20029;-73
2022/03/24 04:08:13;;;;;;;12.45;6.00;;;;;;;;;;5073138;28;20618;-74
2022/03/24 04:10:40;;;;;;;10.63;5.60;;;;;;;;;;5055595;28;20029;-73
2022/03/24 04:13:06;;;;;;;10.77;5.20;;;;;;;;;;5053174;28;20068;-73
2022/03/24 04:15:33;;;;;;;11.02;5.70;;;;;;;;;;5071684;28;20052;-73
2022/03/24 04:18:00;;;;;;;9.18;5.38;;;;;;;;;;5055181;28;20051;-73
2022/03/24 04:20:26;;;;;;;8.93;5.47;;;;;;;;;;5069702;28;20066;-73
2022/03/24 04:22:52;;;;;;;8.57;4.85;;;;;;;;;;5073718;28;20036;-73
2022/03/24 04:25:20;;;;;;;12.48;5.38;;;;;;;;;;5073098;28;20124;-73
2022/03/24 04:27:46;;;;;;;11.27;5.68;;;;;;;;;;5060348;28;20017;-73
2022/03/24 04:30:12;;;;;;;14.38;5.25;;;;;;;;;;5070699;28;20060;-73
2022/03/24 04:32:38;;;;;;;11.73;5.78;;;;;;;;;;5057632;28;20465;-74
2022/03/24 04:35:05;;;;;;;13.15;5.55;;;;;;;;;;5067746;28;20435;-73
2022/03/24 04:37:32;;;;;;;12.10;5.28;;;;;;;;;;5073345;28;20551;-73
2022/03/24 04:39:58;;;;;;;12.55;5.43;;;;;;;;;;5060984;28;20120;-73
2022/03/24 04:42:24;;;;;;;12.80;5.10;;;;;;;;;;5072455;28;20131;-73
2022/03/24 04:44:50;;;;;;;12.75;5.07;;;;;;;;;;5072057;28;20123;-73
2022/03/24 04:47:16;;;;;;;13.57;5.75;;;;;;;;;;5053687;28;20029;-73
2022/03/24 04:49:43;;;;;;;8.80;4.65;;;;;;;;;;5064957;28;20058;-73
2022/03/24 04:52:09;;;;;;;13.30;5.93;;;;;;;;;;5054959;28;20447;-73
2022/03/24 04:54:35;;;;;;;16.83;6.15;;;;;;;;;;5052345;28;20048;-74
2022/03/24 04:57:01;;;;;;;19.60;11.15;;;;;;;;;;5067675;28;20024;-73
2022/03/24 04:59:28;;;;;;;22.92;12.02;;;;;;;;;;5072469;28;20032;-73
2022/03/24 05:01:55;;;;;;;19.92;9.50;;;;;;;;;;5072325;28;20363;-73
2022/03/24 05:04:23;;;;;;;18.05;7.57;;;;;;;;;;5071099;28;20032;-73
2022/03/24 05:06:49;;;;;;;14.45;7.13;;;;;;;;;;5062292;28;20024;-73
2022/03/24 05:09:15;;;;;;;14.30;6.90;;;;;;;;;;5072164;28;20084;-73
2022/03/24 05:11:41;;;;;;;15.27;6.68;;;;;;;;;;5071720;28;20111;-73
2022/03/24 05:14:08;;;;;;;11.32;5.80;;;;;;;;;;5072099;28;20036;-73
2022/03/24 05:16:34;;;;;;;9.73;6.55;;;;;;;;;;5070598;28;20040;-73
2022/03/24 05:19:01;;;;;;;15.77;7.65;;;;;;;;;;5071757;28;20085;-73
2022/03/24 05:21:27;;;;;;;18.92;9.38;;;;;;;;;;5055608;28;20024;-73
2022/03/24 05:23:53;;;;;;;15.43;8.45;;;;;;;;;;5056334;28;20040;-73
2022/03/24 05:26:23;;;;;;;15.93;8.93;;;;;;;;;;5068800;28;20822;-73
2022/03/24 05:28:49;;;;;;;20.27;10.85;;;;;;;;;;5071919;28;20074;-73
2022/03/24 05:31:16;;;;;;;19.67;11.57;;;;;;;;;;5070933;28;20086;-73
2022/03/24 05:33:42;;;;;;;17.75;10.95;;;;;;;;;;5058009;28;20036;-73
2022/03/24 05:36:08;;;;;;;18.08;10.05;;;;;;;;;;5070633;28;20020;-73
2022/03/24 05:38:34;;;;;;;18.05;8.75;;;;;;;;;;5070999;28;20056;-73
2022/03/24 05:41:01;;;;;;;14.40;8.20;;;;;;;;;;5070929;28;20024;-73
2022/03/24 05:43:27;;;;;;;14.95;7.93;;;;;;;;;;5071600;28;20101;-73
2022/03/24 05:45:53;;;;;;;18.52;7.93;;;;;;;;;;5070656;28;20029;-73
2022/03/24 05:48:19;;;;;;;15.75;8.18;;;;;;;;;;5071608;28;20543;-73
2022/03/24 05:50:45;;;;;;;16.60;9.15;;;;;;;;;;5070821;28;20074;-73
2022/03/24 05:53:12;;;;;;;20.48;9.13;;;;;;;;;;5071409;28;20047;-73
2022/03/24 05:55:40;;;;;;;15.25;7.60;;;;;;;;;;5070969;28;20033;-73
2022/03/24 05:58:06;;;;;;;16.75;8.30;;;;;;;;;;5071050;28;20028;-73
2022/03/24 06:00:33;;;;;;;21.48;7.90;;;;;;;;;;5070560;28;20073;-73
2022/03/24 06:03:01;;;;;;;19.73;8.13;;;;;;;;;;5070999;28;20027;-73
2022/03/24 06:05:28;;;;;;;18.08;8.68;;;;;;;;;;5070833;28;20024;-73
2022/03/24 06:07:55;;;;;;;23.52;7.55;;;;;;;;;;5065862;28;20033;-73
2022/03/24 06:10:21;;;;;;;16.92;7.38;;;;;;;;;;5050574;28;20037;-73
2022/03/24 06:12:47;;;;;;;14.40;6.97;;;;;;;;;;5066321;28;20021;-73
2022/03/24 06:15:13;;;;;;;17.27;8.30;;;;;;;;;;5068978;28;20086;-73
2022/03/24 06:17:39;;;;;;;18.73;7.43;;;;;;;;;;5066161;28;20103;-73
2022/03/24 06:20:08;;;;;;;23.95;7.85;;;;;;;;;;5080993;28;20467;-72
2022/03/24 06:22:48;;;;;;;19.52;8.43;;;;;;;;;;5068517;28;20043;-73
2022/03/24 06:25:15;;;;;;;20.55;7.70;;;;;;;;;;5059160;28;20402;-72
2022/03/24 06:27:41;;;;;;;17.02;7.55;;;;;;;;;;5070725;28;20025;-73
2022/03/24 06:30:07;;;;;;;21.90;6.65;;;;;;;;;;5054515;28;20501;-73
2022/03/24 06:32:33;;;;;;;21.10;7.15;;;;;;;;;;5070643;28;20032;-73
2022/03/24 06:35:01;;;;;;;21.42;8.88;;;;;;;;;;5072163;28;20067;-72
2022/03/24 06:37:27;;;;;;;19.25;7.88;;;;;;;;;;5068386;28;20025;-73
2022/03/24 06:39:53;;;;;;;19.13;7.47;;;;;;;;;;5074091;28;20032;-73
2022/03/24 06:42:20;;;;;;;26.55;8.80;;;;;;;;;;5068895;28;20798;-73
2022/03/24 06:44:46;;;;;;;18.30;8.50;;;;;;;;;;5073593;28;20111;-73
2022/03/24 06:47:12;;;;;;;18.75;7.72;;;;;;;;;;5066858;28;20031;-73
2022/03/24 06:49:38;;;;;;;16.10;7.35;;;;;;;;;;5074724;28;20045;-73
2022/03/24 06:52:04;;;;;;;18.30;8.00;;;;;;;;;;5073542;28;20073;-72
2022/03/24 06:54:30;;;;;;;19.33;9.02;;;;;;;;;;5069236;28;20036;-73
2022/03/24 06:56:56;;;;;;;24.98;9.30;;;;;;;;;;5057073;28;20108;-73
2022/03/24 06:59:23;;;;;;;24.40;9.13;;;;;;;;;;5073817;28;20494;-73
2022/03/24 07:01:50;;;;;;;21.95;8.10;;;;;;;;;;5061984;28;20029;-73
2022/03/24 07:04:16;;;;;;;24.55;9.00;;;;;;;;;;5062683;28;20103;-73
2022/03/24 07:06:42;;;;;;;19.88;7.82;;;;;;;;;;5074274;28;20894;-73
2022/03/24 07:09:08;;;;;;;21.50;7.25;;;;;;;;;;5070709;28;20089;-73
2022/03/24 07:11:34;;;;;;;21.45;7.43;;;;;;;;;;5071192;28;20495;-73
2022/03/24 07:14:01;;;;;;;19.27;7.25;;;;;;;;;;5056379;28;20146;-73
2022/03/24 07:16:27;;;;;;;18.00;6.97;;;;;;;;;;5073523;28;20028;-73
2022/03/24 07:18:53;;;;;;;20.38;7.03;;;;;;;;;;5068042;28;20074;-73
2022/03/24 07:21:19;;;;;;;17.73;6.35;;;;;;;;;;5068093;28;20139;-73
2022/03/24 07:23:45;;;;;;;13.18;5.85;;;;;;;;;;5054700;28;20029;-73
2022/03/24 07:26:11;;;;;;;17.60;6.30;;;;;;;;;;5069559;28;20032;-73
2022/03/24 07:28:37;;;;;;;18.92;5.97;;;;;;;;;;5071479;28;20068;-73
2022/03/24 07:31:15;;;;;;;15.45;5.65;;;;;;;;;;5084403;28;20768;-73
2022/03/24 07:33:41;;;;;;;16.27;5.97;;;;;;;;;;5053732;28;20044;-73
2022/03/24 07:36:07;;;;;;;13.77;6.43;;;;;;;;;;5065949;28;20054;-73
2022/03/24 07:38:33;;;;;;;11.90;6.20;;;;;;;;;;5080930;28;20048;-73
2022/03/24 07:40:59;;;;;;;16.77;6.65;;;;;;;;;;5071151;28;20341;-73
2022/03/24 07:43:25;;;;;;;18.15;7.18;;;;;;;;;;5052993;28;20479;-73
2022/03/24 07:45:53;;;;;;;15.85;5.93;;;;;;;;;;5053407;28;20052;-73
2022/03/24 07:48:25;;;;;;;15.73;6.30;;;;;;;;;;5067033;28;20029;-73
2022/03/24 07:50:51;;;;;;;13.27;6.22;;;;;;;;;;5059323;28;20044;-73
2022/03/24 07:53:21;;;;;;;18.50;6.10;;;;;;;;;;5064784;28;20363;-73
2022/03/24 07:55:47;;;;;;;31.23;6.78;;;;;;;;;;5068773;28;20099;-73
2022/03/24 07:58:15;;;;;;;13.75;5.78;;;;;;;;;;5072773;28;20040;-73
2022/03/24 08:00:42;;;;;;;14.38;5.85;;;;;;;;;;5057115;28;20688;-73
2022/03/24 08:03:12;;;;;;;13.75;5.47;;;;;;;;;;5072825;28;20020;-73
2022/03/24 08:05:38;;;;;;;12.30;4.97;;;;;;;;;;5070597;28;20032;-73
2022/03/24 08:08:05;;;;;;;11.80;4.65;;;;;;;;;;5067474;28;20032;-73
2022/03/24 08:10:31;;;;;;;10.77;5.18;;;;;;;;;;5063780;28;20040;-73
2022/03/24 08:12:57;;;;;;;12.65;5.25;;;;;;;;;;5060134;28;20063;-73
2022/03/24 08:15:23;;;;;;;21.08;5.35;;;;;;;;;;5059133;28;20068;-73
2022/03/24 08:17:49;;;;;;;14.68;6.07;;;;;;;;;;5064489;28;20425;-73
2022/03/24 08:20:15;;;;;;;11.43;5.78;;;;;;;;;;5073068;28;20029;-73
2022/03/24 08:22:41;;;;;;;15.35;5.80;;;;;;;;;;5070342;28;20032;-73
2022/03/24 08:25:09;;;;;;;14.75;5.70;;;;;;;;;;5069570;28;20048;-73
2022/03/24 08:27:36;;;;;;;12.82;5.07;;;;;;;;;;5071795;28;20029;-73
2022/03/24 08:30:03;;;;;;;15.32;5.63;;;;;;;;;;5078475;28;20039;-73
2022/03/24 08:32:29;;;;;;;16.45;4.57;;;;;;;;;;5072909;28;20468;-74
2022/03/24 08:34:55;;;;;;;11.20;4.57;;;;;;;;;;5072650;28;20036;-73
2022/03/24 08:37:21;;;;;;;13.88;4.88;;;;;;;;;;5069900;28;20108;-73
2022/03/24 08:39:47;;;;;;;12.73;4.47;;;;;;;;;;5068082;28;20112;-73
2022/03/24 08:42:13;;;;;;;9.02;4.05;;;;;;;;;;5072749;28;20024;-74
2022/03/24 08:44:39;;;;;;;12.27;4.93;;;;;;;;;;5070166;28;20033;-73
2022/03/24 08:47:05;;;;;;;11.23;4.60;;;;;;;;;;5069195;28;20029;-73
2022/03/24 08:49:31;;;;;;;12.63;4.07;;;;;;;;;;5056992;28;20094;-74
2022/03/24 08:51:57;;;;;;;10.32;4.45;;;;;;;;;;5072304;28;20044;-73
2022/03/24 08:54:24;;;;;;;11.07;3.92;;;;;;;;;;5070967;28;20357;-73
2022/03/24 08:56:50;;;;;;;13.40;3.80;;;;;;;;;;5065311;28;20036;-73
2022/03/24 08:59:17;;;;;;;10.63;4.05;;;;;;;;;;5064640;28;20020;-74
2022/03/24 09:01:43;;;;;;;13.75;4.25;;;;;;;;;;5060277;28;20083;-74
2022/03/24 09:04:10;;;;;;;14.35;4.10;;;;;;;;;;5052707;28;20100;-73
2022/03/24 09:06:36;;;;;;;9.57;3.60;;;;;;;;;;5062527;28;20103;-74
2022/03/24 09:09:02;;;;;;;13.20;4.35;;;;;;;;;;5072302;28;20545;-74
2022/03/24 09:11:28;;;;;;;14.10;4.57;;;;;;;;;;5063685;28;20040;-74
2022/03/24 09:13:55;;;;;;;12.95;4.30;;;;;;;;;;5073180;28;20070;-74
2022/03/24 09:16:21;;;;;;;13.93;4.60;;;;;;;;;;5075216;28;20464;-74
2022/03/24 09:18:48;;;;;;;14.77;4.45;;;;;;;;;;5075890;28;20032;-73
2022/03/24 09:21:14;;;;;;;11.30;4.25;;;;;;;;;;5086740;28;20379;-74
2022/03/24 09:23:40;;;;;;;16.00;4.40;;;;;;;;;;5090960;28;20071;-73
2022/03/24 09:26:07;;;;;;;11.15;3.70;;;;;;;;;;5056721;28;20554;-73
2022/03/24 09:28:33;;;;;;;10.63;3.60;;;;;;;;;;5068729;28;20033;-73
2022/03/24 09:30:59;;;;;;;9.35;3.08;;;;;;;;;;5052107;28;20371;-74
2022/03/24 09:33:26;;;;;;;7.65;3.20;;;;;;;;;;5069415;28;20032;-74
2022/03/24 09:35:52;;;;;;;8.32;3.72;;;;;;;;;;5072221;28;20068;-73
2022/03/24 09:38:18;;;;;;;12.85;3.70;;;;;;;;;;5067045;28;20110;-74
2022/03/24 09:40:45;;;;;;;14.73;4.28;;;;;;;;;;5051631;28;20029;-74
2022/03/24 09:43:13;;;;;;;15.18;3.70;;;;;;;;;;5063876;28;20044;-74
2022/03/24 09:45:40;;;;;;;12.50;4.00;;;;;;;;;;5071193;28;20039;-74
2022/03/24 09:48:06;;;;;;;13.77;3.72;;;;;;;;;;5077350;28;20115;-74
2022/03/24 09:50:34;;;;;;;9.27;3.38;;;;;;;;;;5089781;28;20036;-74
2022/03/24 09:53:00;;;;;;;9.73;3.78;;;;;;;;;;5059237;28;20025;-74
2022/03/24 09:55:27;;;;;;;11.63;4.00;;;;;;;;;;5057025;28;20044;-73
2022/03/24 09:57:53;;;;;;;10.05;4.03;;;;;;;;;;5056182;28;20413;-74
2022/03/24 10:00:20;;;;;;;12.30;3.55;;;;;;;;;;5056207;28;20033;-74
2022/03/24 10:03:05;;;;;;;12.15;4.32;;;;;;;;;;5067017;28;20109;-74
2022/03/24 10:05:31;;;;;;;13.00;3.67;;;;;;;;;;5069258;28;20082;-74
2022/03/24 10:08:03;;;;;;;8.85;4.00;;;;;;;;;;5055439;28;20024;-74
2022/03/24 10:10:31;;;;;;;13.55;4.40;;;;;;;;;;5070823;28;20036;-74
2022/03/24 10:12:57;;;;;;;11.93;3.83;;;;;;;;;;5070659;28;20032;-74
2022/03/24 10:15:23;;;;;;;8.13;3.10;;;;;;;;;;5062994;28;20041;-74
2022/03/24 10:17:51;;;;;;;8.85;3.10;;;;;;;;;;5064990;28;20046;-73
2022/03/24 10:20:17;;;;;;;9.05;4.00;;;;;;;;;;5084114;28;20426;-74
2022/03/24 10:22:56;;;;;;;7.90;3.17;;;;;;;;;;5074110;28;20464;-74
2022/03/24 10:25:23;;;;;;;9.38;3.35;;;;;;;;;;5064563;28;20033;-74
2022/03/24 10:27:50;;;;;;;9.57;3.80;;;;;;;;;;5071009;28;20025;-74
2022/03/24 10:30:16;;;;;;;14.20;3.70;;;;;;;;;;5068986;28;20066;-74
2022/03/24 10:32:54;;;;;;;12.43;5.10;;;;;;;;;;5061744;28;20040;-74
2022/03/24 10:35:20;;;;;;;9.45;3.67;;;;;;;;;;5059218;28;20041;-74
2022/03/24 10:37:50;;;;;;;6.97;3.47;;;;;;;;;;5059215;28;20025;-74
2022/03/24 10:40:16;;;;;;;9.32;3.78;;;;;;;;;;5050017;28;20075;-74
2022/03/24 10:42:42;;;;;;;12.30;4.57;;;;;;;;;;5050307;28;20045;-74
2022/03/24 10:45:19;;;;;;;10.38;4.75;;;;;;;;;;5074203;28;20037;-74
2022/03/24 10:47:56;;;;;;;11.40;4.90;;;;;;;;;;5066406;28;20052;-74
2022/03/24 10:50:23;;;;;;;10.15;4.95;;;;;;;;;;5056022;28;20040;-74
2022/03/24 10:52:51;;;;;;;9.90;5.82;;;;;;;;;;5050718;28;20032;-74
2022/03/24 10:55:25;;;;;;;11.98;6.40;;;;;;;;;;5068064;28;20052;-74
2022/03/24 10:57:52;;;;;;;11.88;6.43;;;;;;;;;;5061044;28;20482;-74
2022/03/24 11:00:20;;;;;;;15.02;6.93;;;;;;;;;;5078820;28;20068;-74
2022/03/24 11:02:46;;;;;;;10.57;5.72;;;;;;;;;;5071657;28;20024;-74
2022/03/24 11:05:13;;;;;;;12.98;6.47;;;;;;;;;;5083939;28;20431;-74
2022/03/24 11:07:39;;;;;;;14.65;5.90;;;;;;;;;;5054057;28;20094;-74
2022/03/24 11:10:12;;;;;;;13.38;6.03;;;;;;;;;;5070767;28;20029;-74
2022/03/24 11:12:39;;;;;;;10.90;6.03;;;;;;;;;;5076181;28;20044;-74
2022/03/24 11:15:07;;;;;;;9.50;5.85;;;;;;;;;;5079788;28;20028;-74
2022/03/24 11:17:34;;;;;;;14.30;6.93;;;;;;;;;;5088445;28;20773;-74
2022/03/24 11:20:06;;;;;;;13.02;7.40;;;;;;;;;;5083634;28;20081;-74
2022/03/24 11:22:32;;;;;;;;;;;;;;;;;;5082815;28;20119;-74
2022/03/24 11:24:58;;;;;;;14.55;7.20;;;;;;;;;;5084007;28;19928;-74
2022/03/24 11:27:24;;;;;;;17.63;8.77;;;;;;;;;;5088045;28;20032;-75
2022/03/24 11:29:50;;;;;;;17.08;8.35;;;;;;;;;;5074365;28;20035;-74
2022/03/24 11:32:17;;;;;;;14.70;8.00;;;;;;;;;;5073224;28;20806;-74
2022/03/24 11:34:43;;;;;;;19.00;7.88;;;;;;;;;;5077562;28;20382;-74
2022/03/24 11:37:09;;;;;;;11.90;6.80;;;;;;;;;;5062659;28;20039;-74
2022/03/24 11:39:35;;;;;;;12.88;6.43;;;;;;;;;;5087790;28;20039;-74
2022/03/24 11:42:01;;;;;;;12.98;6.07;;;;;;;;;;5084278;28;20104;-74
2022/03/24 11:44:34;;;;;;;12.18;6.53;;;;;;;;;;5080249;28;20036;-74
2022/03/24 11:47:01;;;;;;;12.50;7.90;;;;;;;;;;5080863;28;20033;-74
2022/03/24 11:49:28;;;;;;;13.82;8.00;;;;;;;;;;5083207;28;20032;-74
2022/03/24 11:51:57;;;;;;;15.85;7.20;;;;;;;;;;5084815;28;20119;-74
2022/03/24 11:54:37;;;;;;;15.38;7.60;;;;;;;;;;5075691;28;20036;-74
2022/03/24 11:57:21;;;;;;;17.40;8.40;;;;;;;;;;5075727;28;20033;-74
2022/03/24 11:59:49;;;;;;;19.02;10.02;;;;;;;;;;5074312;28;20028;-74
2022/03/24 12:02:18;;;;;;;13.10;8.45;;;;;;;;;;5074291;28;20372;-74
2022/03/24 12:04:49;;;;;;;19.17;9.80;;;;;;;;;;5089601;28;20024;-74
2022/03/24 12:07:17;;;;;;;16.17;8.23;;;;;;;;;;5081996;28;20025;-74
2022/03/24 12:09:54;;;;;;;14.52;7.68;;;;;;;;;;5073403;28;20063;-75
2022/03/24 12:12:20;;;;;;;17.52;8.35;;;;;;;;;;5069069;28;20041;-75
2022/03/24 12:14:47;;;;;;;14.82;7.72;;;;;;;;;;5066155;28;20071;-75
2022/03/24 12:17:16;;;;;;;17.65;9.30;;;;;;;;;;5058296;28;20033;-75
2022/03/24 12:19:43;;;;;;;21.52;8.70;;;;;;;;;;5066498;28;20468;-74
2022/03/24 12:22:29;;;;;;;18.55;9.90;;;;;;;;;;5078422;28;20033;-74
2022/03/24 12:25:02;;;;;;;15.93;8.98;;;;;;;;;;5071139;28;20025;-75
2022/03/24 12:27:29;;;;;;;17.48;10.05;;;;;;;;;;5069202;28;20029;-74
2022/03/24 12:30:11;;;;;;;19.35;10.30;;;;;;;;;;5073792;28;20489;-74
2022/03/24 12:32:37;;;;;;;17.13;10.32;;;;;;;;;;5075167;28;20036;-74
2022/03/24 12:35:04;;;;;;;15.80;9.85;;;;;;;;;;5079850;28;20071;-74
2022/03/24 12:37:33;;;;;;;21.13;11.48;;;;;;;;;;5083423;28;20059;-74
2022/03/24 12:40:05;;;;;;;21.60;11.48;;;;;;;;;;5086492;28;20031;-75
2022/03/24 12:42:44;;;;;;;17.10;10.85;;;;;;;;;;5077914;28;20072;-75
2022/03/24 12:45:11;;;;;;;19.70;9.95;;;;;;;;;;5067501;28;20046;-75
2022/03/24 12:47:38;;;;;;;15.60;8.13;;;;;;;;;;5063864;28;20074;-74
2022/03/24 12:50:30;;;;;;;16.92;9.07;;;;;;;;;;5071208;28;20469;-74
2022/03/24 12:53:00;;;;;;;16.80;10.07;;;;;;;;;;5054350;28;20424;-74
2022/03/24 12:55:33;;;;;;;16.60;9.38;;;;;;;;;;5072965;28;20060;-75
2022/03/24 12:58:12;;;;;;;16.08;8.77;;;;;;;;;;5061544;28;20033;-75
2022/03/24 13:00:41;;;;;;;16.45;8.48;;;;;;;;;;5066456;28;20403;-75
2022/03/24 13:03:08;;;;;;;13.90;8.55;;;;;;;;;;5085449;28;20031;-75
2022/03/24 13:05:35;;;;;;;16.42;8.85;;;;;;;;;;5082535;28;20066;-74
2022/03/24 13:08:02;;;;;;;18.45;9.77;;;;;;;;;;5072370;28;20029;-75
2022/03/24 13:10:31;;;;;;;16.67;10.15;;;;;;;;;;5088590;28;20413;-75
2022/03/24 13:12:58;;;;;;;17.02;7.43;;;;;;;;;;5071480;28;20162;-74
2022/03/24 13:15:29;;;;;;;12.18;5.95;;;;;;;;;;5072189;28;20115;-75
2022/03/24 13:18:15;;;;;;;16.30;7.07;;;;;;;;;;5071924;28;20379;-74
2022/03/24 13:20:42;;;;;;;12.45;6.30;;;;;;;;;;5082166;28;20495;-74
2022/03/24 13:23:10;;;;;;;13.88;6.15;;;;;;;;;;5070470;28;20892;-75
2022/03/24 13:25:36;;;;;;;10.25;6.57;;;;;;;;;;5075335;28;20016;-75
2022/03/24 13:28:04;;;;;;;13.80;7.43;;;;;;;;;;5072007;28;20030;-75
2022/03/24 13:30:31;;;;;;;13.18;6.38;;;;;;;;;;5071968;28;20383;-74
2022/03/24 13:33:02;;;;;;;15.55;7.28;;;;;;;;;;5071095;28;20043;-75
2022/03/24 13:35:29;;;;;;;11.52;6.05;;;;;;;;;;5075960;28;20788;-75
2022/03/24 13:37:56;;;;;;;12.65;6.05;;;;;;;;;;5071429;28;20135;-75
2022/03/24 13:40:23;;;;;;;14.90;6.97;;;;;;;;;;5071777;28;20025;-74
2022/03/24 13:42:50;;;;;;;15.13;6.80;;;;;;;;;;5075365;28;20079;-75
2022/03/24 13:45:16;;;;;;;13.73;6.95;;;;;;;;;;5071958;28;20029;-75
2022/03/24 13:47:43;;;;;;;10.93;6.20;;;;;;;;;;5071181;28;20040;-75
2022/03/24 13:50:10;;;;;;;11.23;6.38;;;;;;;;;;5071856;28;20036;-75
2022/03/24 13:52:44;;;;;;;20.55;5.93;;;;;;;;;;5075107;28;20056;-75
2022/03/24 13:55:12;;;;;;;20.90;6.57;;;;;;;;;;5074880;28;20033;-74
2022/03/24 13:57:51;;;;;;;12.07;5.68;;;;;;;;;;5081954;28;20044;-75
2022/03/24 14:00:39;;;;;;;14.32;6.25;;;;;;;;;;5066448;28;20038;-75
2022/03/24 14:03:24;;;;;;;12.18;7.03;;;;;;;;;;5060073;28;20044;-74
2022/03/24 14:05:50;;;;;;;11.32;5.97;;;;;;;;;;5061788;28;20081;-75
2022/03/24 14:08:17;;;;;;;13.40;6.55;;;;;;;;;;5071072;28;20107;-74
2022/03/24 14:10:47;;;;;;;11.63;6.15;;;;;;;;;;5074286;28;20020;-75
2022/03/24 14:13:18;;;;;;;10.20;5.68;;;;;;;;;;5082739;28;20028;-75
2022/03/24 14:15:44;;;;;;;14.98;6.10;;;;;;;;;;5064954;28;20033;-75
2022/03/24 14:18:14;;;;;;;15.68;6.47;;;;;;;;;;5057431;28;20345;-74
2022/03/24 14:20:44;;;;;;;14.27;7.00;;;;;;;;;;5073392;28;20032;-74
2022/03/24 14:23:10;;;;;;;12.93;6.30;;;;;;;;;;5069158;28;20145;-74
2022/03/24 14:25:37;;;;;;;15.32;6.85;;;;;;;;;;5069762;28;20024;-75
2022/03/24 14:28:03;;;;;;;14.43;6.80;;;;;;;;;;5080190;28;20032;-75
2022/03/24 14:30:30;;;;;;;11.30;6.18;;;;;;;;;;5061886;28;20029;-75
2022/03/24 14:32:56;;;;;;;11.63;7.10;;;;;;;;;;5070020;28;20040;-75